createdAt,value
2019-01-29T00:01:32.906Z,3.50
2019-01-29T00:04:00.905Z,3.50
2019-01-29T00:06:28.866Z,3.50
2019-01-29T00:08:57.773Z,3.50
2019-01-29T00:11:25.838Z,3.50
2019-01-29T00:13:53.692Z,3.60
2019-01-29T00:16:21.649Z,3.60
2019-01-29T00:18:49.617Z,3.60
2019-01-29T00:21:17.468Z,3.60
2019-01-29T00:23:45.329Z,3.60
2019-01-29T00:26:13.666Z,3.50
2019-01-29T00:28:41.520Z,3.50
2019-01-29T00:31:09.516Z,3.50
2019-01-29T00:33:39.049Z,3.50
2019-01-29T00:36:07.101Z,3.50
2019-01-29T00:38:35.012Z,3.50
2019-01-29T00:41:02.994Z,3.50
2019-01-29T00:43:30.965Z,3.50
2019-01-29T00:45:58.949Z,3.40
2019-01-29T00:48:26.821Z,3.40
2019-01-29T00:50:54.694Z,3.30
2019-01-29T00:53:22.564Z,3.30
2019-01-29T00:55:50.930Z,3.30
2019-01-29T00:58:18.799Z,3.20
2019-01-29T01:00:47.053Z,3.20
2019-01-29T01:03:15.807Z,3.30
2019-01-29T01:05:43.749Z,3.30
2019-01-29T01:08:13.168Z,3.30
2019-01-29T01:10:41.014Z,3.30
2019-01-29T01:13:09.073Z,3.30
2019-01-29T01:15:37.490Z,3.40
2019-01-29T01:18:05.534Z,3.40
2019-01-29T01:20:33.614Z,3.20
2019-01-29T01:23:01.525Z,3.30
2019-01-29T01:25:29.571Z,3.20
2019-01-29T01:27:57.782Z,3.20
2019-01-29T01:30:25.822Z,3.20
2019-01-29T01:32:53.803Z,3.20
2019-01-29T01:35:22.004Z,3.20
2019-01-29T01:37:49.869Z,3.30
2019-01-29T01:40:20.261Z,3.30
2019-01-29T01:42:48.262Z,3.30
2019-01-29T01:45:16.621Z,3.40
2019-01-29T01:47:44.689Z,3.30
2019-01-29T01:50:12.985Z,3.40
2019-01-29T01:52:40.957Z,3.50
2019-01-29T01:55:11.268Z,3.30
2019-01-29T01:57:39.409Z,3.30
2019-01-29T02:00:12.353Z,3.30
2019-01-29T02:02:41.006Z,3.30
2019-01-29T02:05:09.487Z,3.30
2019-01-29T02:07:37.425Z,3.30
2019-01-29T02:10:09.355Z,3.40
2019-01-29T02:12:37.678Z,3.40
2019-01-29T02:15:06.725Z,3.40
2019-01-29T02:17:35.093Z,3.50
2019-01-29T02:20:05.157Z,3.50
2019-01-29T02:22:33.409Z,3.50
2019-01-29T02:25:02.268Z,3.50
2019-01-29T02:27:30.381Z,3.50
2019-01-29T02:29:58.586Z,3.50
2019-01-29T02:32:27.134Z,3.50
2019-01-29T02:34:55.090Z,3.40
2019-01-29T02:37:23.350Z,3.40
2019-01-29T02:39:52.333Z,3.30
2019-01-29T02:42:20.462Z,3.20
2019-01-29T02:44:49.610Z,3.30
2019-01-29T02:47:17.750Z,3.30
2019-01-29T02:49:46.122Z,3.30
2019-01-29T02:52:14.216Z,3.30
2019-01-29T02:54:42.073Z,3.30
2019-01-29T02:57:10.209Z,3.30
2019-01-29T02:59:38.360Z,3.30
2019-01-29T03:02:06.500Z,3.20
2019-01-29T03:04:34.793Z,3.20
2019-01-29T03:07:02.853Z,3.20
2019-01-29T03:09:31.140Z,3.20
2019-01-29T03:11:58.988Z,3.40
2019-01-29T03:14:27.092Z,3.20
2019-01-29T03:16:55.185Z,3.10
2019-01-29T03:19:23.386Z,3.10
2019-01-29T03:21:51.734Z,3.10
2019-01-29T03:24:20.207Z,3.00
2019-01-29T03:26:48.392Z,2.90
2019-01-29T03:29:16.776Z,3.00
2019-01-29T03:31:48.962Z,3.00
2019-01-29T03:34:16.060Z,2.90
2019-01-29T03:36:44.097Z,2.80
2019-01-29T03:39:12.306Z,2.80
2019-01-29T03:41:40.637Z,2.70
2019-01-29T03:44:09.097Z,2.60
2019-01-29T03:46:37.546Z,2.80
2019-01-29T03:49:06.013Z,2.70
2019-01-29T03:51:34.457Z,2.70
2019-01-29T03:54:02.662Z,2.60
2019-01-29T03:56:30.765Z,2.50
2019-01-29T03:58:58.781Z,2.40
2019-01-29T04:01:27.034Z,2.50
2019-01-29T04:03:55.460Z,2.50
2019-01-29T04:06:24.085Z,2.60
2019-01-29T04:08:52.141Z,2.60
2019-01-29T04:11:20.494Z,2.50
2019-01-29T04:13:48.953Z,2.60
2019-01-29T04:16:17.505Z,2.60
2019-01-29T04:18:45.617Z,2.60
2019-01-29T04:21:13.953Z,2.70
2019-01-29T04:23:47.299Z,2.50
2019-01-29T04:26:12.040Z,2.60
2019-01-29T04:28:40.221Z,2.60
2019-01-29T04:31:08.329Z,2.50
2019-01-29T04:33:36.428Z,2.50
2019-01-29T04:36:04.486Z,2.50
2019-01-29T04:38:32.849Z,2.60
2019-01-29T04:41:01.550Z,2.60
2019-01-29T04:43:29.549Z,2.60
2019-01-29T04:45:57.826Z,2.60
2019-01-29T04:48:26.386Z,2.60
2019-01-29T04:50:57.745Z,2.60
2019-01-29T04:53:25.791Z,2.60
2019-01-29T04:55:54.539Z,2.50
2019-01-29T04:58:22.422Z,2.70
2019-01-29T05:00:50.930Z,2.60
2019-01-29T05:03:19.177Z,2.60
2019-01-29T05:05:47.041Z,2.60
2019-01-29T05:08:15.403Z,2.50
2019-01-29T05:10:44.342Z,2.60
2019-01-29T05:13:13.209Z,2.50
2019-01-29T05:15:41.309Z,2.60
2019-01-29T05:18:09.525Z,2.60
2019-01-29T05:20:37.627Z,2.60
2019-01-29T05:23:05.833Z,2.60
2019-01-29T05:25:34.268Z,2.60
2019-01-29T05:28:02.486Z,2.60
2019-01-29T05:30:30.639Z,2.60
2019-01-29T05:32:58.623Z,2.60
2019-01-29T05:35:26.485Z,2.60
2019-01-29T05:37:54.338Z,2.60
2019-01-29T05:40:22.948Z,2.70
2019-01-29T05:42:51.925Z,2.80
2019-01-29T05:45:20.582Z,2.80
2019-01-29T05:47:48.630Z,2.80
2019-01-29T05:50:16.966Z,2.90
2019-01-29T05:52:45.019Z,2.90
2019-01-29T05:55:13.471Z,2.90
2019-01-29T05:57:41.813Z,2.90
2019-01-29T06:00:15.878Z,3.00
2019-01-29T06:02:48.641Z,2.90
2019-01-29T06:05:17.141Z,3.00
2019-01-29T06:07:45.109Z,2.90
2019-01-29T06:10:13.249Z,3.00
2019-01-29T06:12:41.310Z,3.00
2019-01-29T06:15:11.886Z,3.10
2019-01-29T06:17:39.749Z,3.10
2019-01-29T06:20:11.329Z,3.10
2019-01-29T06:22:39.341Z,3.20
2019-01-29T06:25:07.474Z,3.20
2019-01-29T06:27:35.468Z,3.30
2019-01-29T06:30:05.046Z,3.20
2019-01-29T06:32:33.137Z,3.20
2019-01-29T06:35:01.110Z,3.30
2019-01-29T06:37:29.016Z,3.30
2019-01-29T06:40:01.091Z,3.30
2019-01-29T06:42:29.225Z,3.30
2019-01-29T06:44:58.356Z,3.30
2019-01-29T06:47:26.214Z,3.30
2019-01-29T06:49:54.078Z,3.30
2019-01-29T06:52:25.017Z,3.30
2019-01-29T06:54:52.141Z,3.30
2019-01-29T06:57:24.637Z,3.30
2019-01-29T06:59:52.121Z,3.20
2019-01-29T07:02:19.167Z,3.40
2019-01-29T07:04:46.029Z,3.20
2019-01-29T07:07:13.013Z,3.20
2019-01-29T07:09:40.221Z,3.30
2019-01-29T07:12:08.175Z,3.20
2019-01-29T07:14:36.037Z,3.20
2019-01-29T07:17:22.021Z,3.20
2019-01-29T07:19:51.918Z,3.20
2019-01-29T07:22:18.793Z,3.20
2019-01-29T07:24:46.237Z,3.20
2019-01-29T07:27:13.867Z,3.20
2019-01-29T07:29:40.966Z,3.10
2019-01-29T07:32:08.457Z,3.00
2019-01-29T07:34:38.127Z,3.00
2019-01-29T07:37:06.337Z,3.00
2019-01-29T07:39:34.545Z,2.90
2019-01-29T07:42:02.624Z,3.00
2019-01-29T07:44:30.564Z,3.00
2019-01-29T07:46:58.412Z,3.10
2019-01-29T07:49:26.360Z,3.10
2019-01-29T07:51:54.457Z,3.00
2019-01-29T07:54:22.601Z,3.00
2019-01-29T07:56:50.885Z,3.00
2019-01-29T07:59:32.369Z,3.20
2019-01-29T08:01:48.928Z,3.20
2019-01-29T08:04:16.878Z,3.30
2019-01-29T08:06:44.826Z,3.30
2019-01-29T08:09:12.713Z,3.30
2019-01-29T08:11:40.775Z,3.20
2019-01-29T08:14:08.633Z,3.20
2019-01-29T08:16:36.694Z,3.30
2019-01-29T08:19:04.682Z,3.30
2019-01-29T08:21:36.046Z,3.30
2019-01-29T08:24:04.105Z,3.40
2019-01-29T08:26:31.953Z,3.50
2019-01-29T08:28:59.813Z,3.40
2019-01-29T08:31:27.653Z,3.50
2019-01-29T08:33:56.012Z,3.40
2019-01-29T08:36:24.305Z,3.50
2019-01-29T08:38:52.297Z,3.60
2019-01-29T08:41:20.353Z,3.70
2019-01-29T08:43:48.533Z,3.70
2019-01-29T08:46:16.477Z,3.40
2019-01-29T08:48:44.409Z,3.40
2019-01-29T08:51:12.361Z,3.50
2019-01-29T08:53:42.599Z,3.40
2019-01-29T08:56:10.640Z,3.50
2019-01-29T08:58:38.525Z,3.50
2019-01-29T09:01:08.724Z,3.60
2019-01-29T09:03:36.500Z,3.80
2019-01-29T09:06:06.572Z,3.90
2019-01-29T09:08:34.805Z,4.00
2019-01-29T09:11:03.258Z,4.10
2019-01-29T09:13:31.465Z,4.10
2019-01-29T09:15:59.333Z,4.10
2019-01-29T09:18:27.507Z,4.10
2019-01-29T09:20:58.830Z,4.20
2019-01-29T09:23:26.917Z,4.00
2019-01-29T09:25:54.802Z,3.80
2019-01-29T09:28:22.649Z,4.00
2019-01-29T09:30:50.518Z,4.10
2019-01-29T09:33:24.104Z,4.40
2019-01-29T09:35:52.407Z,4.50
2019-01-29T09:38:20.884Z,4.50
2019-01-29T09:40:48.987Z,4.60
2019-01-29T09:43:17.186Z,4.70
2019-01-29T09:45:49.817Z,4.80
2019-01-29T09:48:18.122Z,4.80
2019-01-29T09:50:46.097Z,4.70
2019-01-29T09:53:14.051Z,4.60
2019-01-29T09:55:41.937Z,4.60
2019-01-29T09:58:11.817Z,4.70
2019-01-29T10:00:39.973Z,4.50
2019-01-29T10:03:07.870Z,4.40
2019-01-29T10:05:36.011Z,4.50
2019-01-29T10:08:05.211Z,4.50
2019-01-29T10:10:36.682Z,4.50
2019-01-29T10:13:05.014Z,4.60
2019-01-29T10:15:33.785Z,4.50
2019-01-29T10:18:02.446Z,4.60
2019-01-29T10:20:30.820Z,4.60
2019-01-29T10:22:58.677Z,4.80
2019-01-29T10:25:37.040Z,4.90
2019-01-29T10:27:58.268Z,5.00
2019-01-29T10:30:27.252Z,4.90
2019-01-29T10:32:55.567Z,4.90
2019-01-29T10:35:29.079Z,5.00
2019-01-29T10:37:57.054Z,4.90
2019-01-29T10:40:25.765Z,4.80
2019-01-29T10:42:54.828Z,4.90
2019-01-29T10:45:24.355Z,5.00
2019-01-29T10:47:56.524Z,5.00
2019-01-29T10:50:25.509Z,5.00
2019-01-29T10:52:54.366Z,5.00
2019-01-29T10:55:22.358Z,5.00
2019-01-29T10:57:50.831Z,5.00
2019-01-29T11:00:23.687Z,5.10
2019-01-29T11:02:52.114Z,5.10
2019-01-29T11:05:20.617Z,5.10
2019-01-29T11:07:48.700Z,5.20
2019-01-29T11:10:17.369Z,5.20
2019-01-29T11:12:49.074Z,5.20
2019-01-29T11:15:28.899Z,5.30
2019-01-29T11:17:55.958Z,5.50
2019-01-29T11:20:23.128Z,5.80
2019-01-29T11:22:54.614Z,5.90
2019-01-29T11:25:24.099Z,5.90
2019-01-29T11:27:52.210Z,5.70
2019-01-29T11:30:23.998Z,5.60
2019-01-29T11:32:56.350Z,5.50
2019-01-29T11:35:24.426Z,5.70
2019-01-29T11:37:52.742Z,6.10
2019-01-29T11:40:22.709Z,6.30
2019-01-29T11:42:51.187Z,6.20
2019-01-29T11:45:28.085Z,6.20
2019-01-29T11:47:55.065Z,6.00
2019-01-29T11:50:22.257Z,5.70
2019-01-29T11:52:50.352Z,5.50
2019-01-29T11:55:22.669Z,5.40
2019-01-29T11:57:50.177Z,5.40
2019-01-29T12:00:26.717Z,5.50
2019-01-29T12:02:54.690Z,5.40
2019-01-29T12:05:25.929Z,5.20
2019-01-29T12:07:54.174Z,5.20
2019-01-29T12:10:22.345Z,5.20
2019-01-29T12:12:50.373Z,5.20
2019-01-29T12:15:18.606Z,5.20
2019-01-29T12:17:49.926Z,5.40
2019-01-29T12:20:18.714Z,5.40
2019-01-29T12:22:46.833Z,5.30
2019-01-29T12:25:15.026Z,5.40
2019-01-29T12:27:43.018Z,5.10
2019-01-29T12:30:17.506Z,5.00
2019-01-29T12:32:46.438Z,4.80
2019-01-29T12:35:13.554Z,4.80
2019-01-29T12:37:41.414Z,5.10
2019-01-29T12:40:09.714Z,5.40
2019-01-29T12:42:39.368Z,5.90
2019-01-29T12:45:08.976Z,6.30
2019-01-29T12:47:37.077Z,6.60
2019-01-29T12:50:07.573Z,6.80
2019-01-29T12:52:58.705Z,6.70
2019-01-29T12:55:25.801Z,6.70
2019-01-29T12:57:52.685Z,6.60
2019-01-29T13:00:23.749Z,6.50
2019-01-29T13:02:50.620Z,6.60
2019-01-29T13:05:17.605Z,7.00
2019-01-29T13:07:44.663Z,7.20
2019-01-29T13:10:15.330Z,7.60
2019-01-29T13:12:45.861Z,7.90
2019-01-29T13:15:16.455Z,8.30
2019-01-29T13:17:44.573Z,8.00
2019-01-29T13:20:12.663Z,7.80
2019-01-29T13:22:40.656Z,7.90
2019-01-29T13:25:10.701Z,7.50
2019-01-29T13:27:38.597Z,7.30
2019-01-29T13:30:11.972Z,7.10
2019-01-29T13:32:40.621Z,7.00
2019-01-29T13:35:12.969Z,6.90
2019-01-29T13:37:40.845Z,6.90
2019-01-29T13:40:08.913Z,6.80
2019-01-29T13:42:37.057Z,7.10
2019-01-29T13:45:06.909Z,6.90
2019-01-29T13:47:38.213Z,6.60
2019-01-29T13:50:10.057Z,7.10
2019-01-29T13:52:38.014Z,7.50
2019-01-29T13:55:08.533Z,7.60
2019-01-29T13:57:36.937Z,7.60
2019-01-29T14:00:12.376Z,7.20
2019-01-29T14:02:40.557Z,7.50
2019-01-29T14:05:08.693Z,7.30
2019-01-29T14:07:36.670Z,7.30
2019-01-29T14:10:09.930Z,7.50
2019-01-29T14:12:36.937Z,7.60
2019-01-29T14:15:06.126Z,7.70
2019-01-29T14:17:34.005Z,7.70
2019-01-29T14:20:02.215Z,7.70
2019-01-29T14:22:34.396Z,7.50
2019-01-29T14:25:02.830Z,7.30
2019-01-29T14:27:31.330Z,6.50
2019-01-29T14:29:59.549Z,6.20
2019-01-29T14:32:27.857Z,6.00
2019-01-29T14:34:59.593Z,5.80
2019-01-29T14:37:27.480Z,5.50
2019-01-29T14:40:17.380Z,5.60
2019-01-29T14:42:46.512Z,5.50
2019-01-29T14:45:18.566Z,5.50
2019-01-29T14:47:46.015Z,5.40
2019-01-29T14:50:13.613Z,5.30
2019-01-29T14:52:44.772Z,5.20
2019-01-29T14:55:13.190Z,5.10
2019-01-29T14:57:41.302Z,5.20
2019-01-29T15:00:15.513Z,5.30
2019-01-29T15:02:46.985Z,5.10
2019-01-29T15:05:15.429Z,4.90
2019-01-29T15:07:43.725Z,4.80
2019-01-29T15:10:13.385Z,5.00
2019-01-29T15:12:41.617Z,4.80
2019-01-29T15:15:11.206Z,4.50
2019-01-29T15:17:43.990Z,4.50
2019-01-29T15:20:12.179Z,4.50
2019-01-29T15:22:40.289Z,4.30
2019-01-29T15:25:09.435Z,4.30
2019-01-29T15:27:37.561Z,4.40
2019-01-29T15:30:11.825Z,4.40
2019-01-29T15:32:40.050Z,4.50
2019-01-29T15:35:07.490Z,4.50
2019-01-29T15:37:38.844Z,4.40
2019-01-29T15:40:09.261Z,4.30
2019-01-29T15:42:36.329Z,4.30
2019-01-29T15:45:05.621Z,4.10
2019-01-29T15:47:32.490Z,4.30
2019-01-29T15:49:59.357Z,4.10
2019-01-29T15:52:26.365Z,4.10
2019-01-29T15:54:53.439Z,4.10
2019-01-29T15:57:20.405Z,4.00
2019-01-29T15:59:48.870Z,3.80
2019-01-29T16:02:16.652Z,3.80
2019-01-29T16:04:43.714Z,3.80
2019-01-29T16:07:10.584Z,3.70
2019-01-29T16:09:37.856Z,3.60
2019-01-29T16:12:05.050Z,3.50
2019-01-29T16:14:32.528Z,3.60
2019-01-29T16:17:00.041Z,3.60
2019-01-29T16:19:27.144Z,4.00
2019-01-29T16:21:54.953Z,3.90
2019-01-29T16:24:25.104Z,3.90
2019-01-29T16:26:52.892Z,3.90
2019-01-29T16:29:20.509Z,4.00
2019-01-29T16:31:47.767Z,4.00
2019-01-29T16:34:14.739Z,4.10
2019-01-29T16:36:43.085Z,3.70
2019-01-29T16:39:11.492Z,3.70
2019-01-29T16:41:42.684Z,3.50
2019-01-29T16:44:10.062Z,3.30
2019-01-29T16:46:37.472Z,3.20
2019-01-29T16:49:04.438Z,3.20
2019-01-29T16:51:41.526Z,3.20
2019-01-29T16:54:04.582Z,3.10
2019-01-29T16:56:31.765Z,3.00
2019-01-29T16:58:58.676Z,2.90
2019-01-29T17:01:26.145Z,3.10
2019-01-29T17:03:53.484Z,2.90
2019-01-29T17:06:20.581Z,2.90
2019-01-29T17:08:47.668Z,2.70
2019-01-29T17:11:19.186Z,2.70
2019-01-29T17:13:46.272Z,2.80
2019-01-29T17:16:13.369Z,2.70
2019-01-29T17:18:41.322Z,2.60
2019-01-29T17:21:09.286Z,2.70
2019-01-29T17:23:38.901Z,2.60
2019-01-29T17:26:07.223Z,2.50
2019-01-29T17:28:35.505Z,2.50
2019-01-29T17:31:03.838Z,2.40
2019-01-29T17:33:32.144Z,2.40
2019-01-29T17:36:00.836Z,2.30
2019-01-29T17:38:44.254Z,2.40
2019-01-29T17:41:05.012Z,2.50
2019-01-29T17:43:32.556Z,2.60
2019-01-29T17:45:59.890Z,2.50
2019-01-29T17:48:26.756Z,2.50
2019-01-29T17:50:55.109Z,2.40
2019-01-29T17:53:28.172Z,2.40
2019-01-29T17:55:55.648Z,2.40
2019-01-29T17:58:22.978Z,2.50
2019-01-29T18:00:54.728Z,2.50
2019-01-29T18:03:21.930Z,2.60
2019-01-29T18:05:54.571Z,2.60
2019-01-29T18:08:22.508Z,2.50
2019-01-29T18:10:50.969Z,2.50
2019-01-29T18:13:19.255Z,2.60
2019-01-29T18:15:47.210Z,2.30
2019-01-29T18:18:18.588Z,2.40
2019-01-29T18:20:46.678Z,2.40
2019-01-29T18:23:14.873Z,2.40
2019-01-29T18:25:43.049Z,2.50
2019-01-29T18:28:11.378Z,2.40
2019-01-29T18:30:44.591Z,2.40
2019-01-29T18:33:12.045Z,2.40
2019-01-29T18:35:40.146Z,2.30
2019-01-29T18:38:08.516Z,2.30
2019-01-29T18:40:42.568Z,2.30
2019-01-29T18:43:11.088Z,2.00
2019-01-29T18:45:40.149Z,2.00
2019-01-29T18:48:08.336Z,2.00
2019-01-29T18:50:36.547Z,1.90
2019-01-29T18:53:04.755Z,2.00
2019-01-29T18:55:36.561Z,2.00
2019-01-29T18:58:11.538Z,2.00
2019-01-29T19:00:35.377Z,2.00
2019-01-29T19:03:04.153Z,1.90
2019-01-29T19:05:32.016Z,1.90
2019-01-29T19:08:03.157Z,2.00
2019-01-29T19:10:31.207Z,2.10
2019-01-29T19:12:59.347Z,2.20
2019-01-29T19:15:27.776Z,2.20
2019-01-29T19:17:55.986Z,2.20
2019-01-29T19:20:29.932Z,2.20
2019-01-29T19:22:58.035Z,2.20
2019-01-29T19:25:26.004Z,2.00
2019-01-29T19:27:54.488Z,1.90
2019-01-29T19:30:25.876Z,2.00
2019-01-29T19:32:56.204Z,1.90
2019-01-29T19:35:24.385Z,2.00
2019-01-29T19:37:52.625Z,2.10
2019-01-29T19:40:21.091Z,2.20
2019-01-29T19:42:49.280Z,2.40
2019-01-29T19:45:31.443Z,2.30
2019-01-29T19:47:59.289Z,2.30
2019-01-29T19:50:27.212Z,2.30
2019-01-29T19:52:54.980Z,2.20
2019-01-29T19:55:24.039Z,2.10
2019-01-29T19:57:52.850Z,2.10
2019-01-29T20:00:23.573Z,2.20
2019-01-29T20:02:52.285Z,2.00
2019-01-29T20:05:23.851Z,2.20
2019-01-29T20:07:52.476Z,2.00
2019-01-29T20:10:21.403Z,2.00
2019-01-29T20:12:49.612Z,2.00
2019-01-29T20:15:18.332Z,1.80
2019-01-29T20:17:47.449Z,1.90
2019-01-29T20:20:20.768Z,2.00
2019-01-29T20:22:49.276Z,2.00
2019-01-29T20:25:18.453Z,2.00
2019-01-29T20:27:46.309Z,2.10
2019-01-29T20:30:17.640Z,2.10
2019-01-29T20:32:53.202Z,2.10
2019-01-29T20:35:16.357Z,1.90
2019-01-29T20:37:44.691Z,1.90
2019-01-29T20:40:14.281Z,1.90
2019-01-29T20:42:42.238Z,1.90
2019-01-29T20:45:10.961Z,2.00
2019-01-29T20:47:39.052Z,1.80
2019-01-29T20:50:10.612Z,1.70
2019-01-29T20:52:39.030Z,1.90
2019-01-29T20:55:07.209Z,1.90
2019-01-29T20:57:35.634Z,1.80
2019-01-29T21:00:09.813Z,1.90
2019-01-29T21:02:38.437Z,1.90
2019-01-29T21:05:06.894Z,1.90
2019-01-29T21:07:35.028Z,1.80
2019-01-29T21:10:07.937Z,1.80
2019-01-29T21:12:36.204Z,1.70
2019-01-29T21:15:06.508Z,1.70
2019-01-29T21:17:34.366Z,1.70
2019-01-29T21:20:03.068Z,1.70
2019-01-29T21:22:32.360Z,1.70
2019-01-29T21:25:00.233Z,1.80
2019-01-29T21:27:28.343Z,1.90
2019-01-29T21:29:56.265Z,1.80
2019-01-29T21:32:24.288Z,1.80
2019-01-29T21:34:58.301Z,1.80
2019-01-29T21:37:25.325Z,1.80
2019-01-29T21:39:52.421Z,1.80
2019-01-29T21:42:20.580Z,1.80
2019-01-29T21:44:48.436Z,1.70
2019-01-29T21:47:16.561Z,1.80
2019-01-29T21:49:44.877Z,1.90
2019-01-29T21:52:12.720Z,1.80
2019-01-29T21:54:40.602Z,1.70
2019-01-29T21:57:08.449Z,1.70
2019-01-29T21:59:36.485Z,1.70
2019-01-29T22:02:07.084Z,1.80
2019-01-29T22:04:37.672Z,1.70
2019-01-29T22:07:04.628Z,1.60
2019-01-29T22:09:32.509Z,1.70
2019-01-29T22:12:00.366Z,1.50
2019-01-29T22:14:28.450Z,1.80
2019-01-29T22:16:56.662Z,1.80
2019-01-29T22:19:24.636Z,1.70
2019-01-29T22:21:52.612Z,1.80
2019-01-29T22:24:20.523Z,1.90
2019-01-29T22:26:48.551Z,1.70
2019-01-29T22:29:23.081Z,1.70
2019-01-29T22:31:46.330Z,1.60
2019-01-29T22:34:14.287Z,1.70
2019-01-29T22:36:42.385Z,1.70
2019-01-29T22:39:10.256Z,1.80
2019-01-29T22:41:38.235Z,1.70
2019-01-29T22:44:06.202Z,1.60
2019-01-29T22:46:34.070Z,1.60
2019-01-29T22:49:02.274Z,1.60
2019-01-29T22:51:30.525Z,1.60
2019-01-29T22:53:59.627Z,1.60
2019-01-29T22:56:28.243Z,1.50
2019-01-29T22:58:56.357Z,1.80
2019-01-29T23:01:31.878Z,1.80
2019-01-29T23:04:18.424Z,1.80
2019-01-29T23:06:53.996Z,1.90
2019-01-29T23:09:21.978Z,2.00
2019-01-29T23:11:51.060Z,2.10
2019-01-29T23:14:19.508Z,2.10
2019-01-29T23:16:47.585Z,2.20
2019-01-29T23:19:15.802Z,2.00
2019-01-29T23:21:43.933Z,2.10
2019-01-29T23:24:12.425Z,1.90
2019-01-29T23:26:40.585Z,1.90
2019-01-29T23:29:09.473Z,1.80
2019-01-29T23:31:37.997Z,1.80
2019-01-29T23:34:06.073Z,1.90
2019-01-29T23:36:34.481Z,1.90
2019-01-29T23:39:07.269Z,1.70
2019-01-29T23:41:35.903Z,1.80
2019-01-29T23:44:04.226Z,1.80
2019-01-29T23:46:32.497Z,1.80
2019-01-29T23:49:00.482Z,1.70
2019-01-29T23:51:28.353Z,1.70
2019-01-29T23:53:56.475Z,1.70
2019-01-29T23:56:24.428Z,1.70
2019-01-29T23:58:54.000Z,1.80
